FSIA

Seychelles International Airport

Mahe Island, Seychelles
METAR FSIA 261300Z 13008KT 9999 R13///// BKN017 28/25 Q1008 NOSIG
Observed Flight Rules
May-26 @ 13:00 UTC (25 minutes ago) Marginal Visual Flight Rules
Wind Visibility Clouds
130° at 8 knots 10,000+ meters
  • Broken at 1,700' AGL
Temperatures Readings
Current 28°C / 82°F
Dewpoint 25°C / 77°F
Humidity 84%
Altimeter 29.76" Hg
Pressure 1008 hPa
Elevation 3
METAR FSIA 261300Z 13008KT 9999 R13///// BKN017 28/25 Q1008 NOSIG
Observed Flight Rules
May-26 @ 13:00 UTC
(25 minutes ago)
MVFR
Wind Visibility
130° at 8 knots 10,000+ meters
Clouds
  • Broken at 1,700' AGL
Temperature Dewpoint
28°C / 82°F 25°C / 77°F
Humidity Altimeter Pressure
84% 29.76" Hg 1008 hPa